Terminal Aerodrome Forecast
Issued by NWS

Home | Current Version | Previous Version | Text Only | Print | Product List | Glossary On
Versions: 1 2 3 4 5 6 7 8 9 10 11 12 13 14 15 16 17 18 19 20 21 22 23 24
910
FTUS41 KBUF 250532
TAFIAG
TAF
KIAG 250532Z 2506/2606 21018G26KT P6SM BKN200 WS020/23050KT
     FM251200 23016G24KT P6SM BKN060
     FM251400 24014G22KT P6SM VCSH OVC025
     FM251600 25014G22KT P6SM VCSH OVC015
     FM251800 27012G18KT P6SM OVC025
     FM252100 29012KT P6SM BKN035=

USA.gov is the U.S. government's official web portal to all federal, state and local government web resources and services.